KSSI/SSI METAR and TAF weather

Enter ICAO airport designator
Station Type Date Time Source
KSSI METAR 2022/07/01 01:53 UTC NOAA

KSSI 010153Z AUTO 15009KT 10SM FEW021 FEW033 28/23 A3011 RMK AO2 SLP198 T02830228


Station Type Date Time Source
KSSI Decoded METAR 2022/07/01 01:53 UTC NOAA

BRUNSWICK MC KINNON AIRPORT , GA, United States (KSSI) 31-09N 081-23W 6M
Jun 30, 2022 - 09:53 PM EDT / 2022.07.01 0153 UTC
Wind: from the SSE (150 degrees) at 10 MPH (9 KT):0
Visibility: 10 mile(s):0
Sky conditions: mostly clear
Temperature: 82.9 F (28.3 C)
Dew Point: 73.0 F (22.8 C)
Relative Humidity: 72%
Pressure (altimeter): 30.11 in. Hg (1019 hPa)
ob: KSSI 010153Z AUTO 15009KT 10SM FEW021 FEW033 28/23 A3011 RMK AO2 SLP198 T02830228
cycle: 2

Station Type Date Time Source
KSSI TAF 2022/07/01 03:39 UTC NOAA

TAF
AMD KSSI 010236Z 0103/0124 12007KT P6SM VCTS SCT020 BKN035CB OVC100
TEMPO 0103/0107 6SM -RA BKN020
FM011200 15008KT P6SM VCTS SCT025CB BKN040 OVC100 PROB30 0117/0121 VRB15G25KT 3SM TSRA BKN025CB

Example: see airport list